Time;durP1;ratioP1;P1;durP2;ratioP2;P2;SDS_P1;SDS_P2;PMS_P1;PMS_P2;Temp;Humidity;BMP_temperature;BMP_pressure;BME280_temperature;BME280_humidity;BME280_pressure;Samples;Min_cycle;Max_cycle;Signal;HPM_P1;HPM_P2
2022/12/23 00:01:04;;;;;;;0.10;0.10;;;;;;;5.73;72.92;99791.13;7353376;19;20014;-59
2022/12/23 00:03:31;;;;;;;0.00;0.00;;;;;;;5.72;72.89;99784.22;7350221;19;20105;-59
2022/12/23 00:05:56;;;;;;;0.00;0.00;;;;;;;5.74;72.89;99787.66;7347364;19;20010;-60
2022/12/23 00:08:23;;;;;;;0.00;0.00;;;;;;;5.74;73.19;99787.66;7352777;19;20482;-59
2022/12/23 00:10:50;;;;;;;0.00;0.00;;;;;;;5.76;73.28;99778.09;7348860;19;20023;-59
2022/12/23 00:16:01;;;;;;;0.00;0.00;;;;;;;5.75;73.11;99766.03;7350257;19;20030;-59
2022/12/23 00:18:26;;;;;;;0.00;0.00;;;;;;;5.75;73.36;99772.97;7351556;19;20045;-60
2022/12/23 00:21:06;;;;;;;0.05;0.05;;;;;;;5.76;72.85;99767.75;7347918;19;20481;-59
2022/12/23 00:23:33;;;;;;;0.10;0.10;;;;;;;5.75;72.62;99773.81;7350875;19;20067;-60
2022/12/23 00:25:59;;;;;;;0.10;0.10;;;;;;;5.73;72.87;99770.41;7347387;19;20757;-59
2022/12/23 00:28:26;;;;;;;0.08;0.08;;;;;;;5.71;73.27;99769.56;7348426;19;20003;-59
2022/12/23 00:30:58;;;;;;;0.10;0.10;;;;;;;5.70;73.13;99781.66;7350277;19;20011;-59
2022/12/23 00:33:27;;;;;;;0.00;0.00;;;;;;;5.70;73.21;99783.41;7348083;19;20090;-59
2022/12/23 00:35:52;;;;;;;0.00;0.00;;;;;;;5.67;73.20;99778.25;7349002;19;20022;-59
2022/12/23 00:43:49;;;;;;;0.10;0.10;;;;;;;5.65;73.05;99798.16;7358735;19;20021;-59
2022/12/23 00:46:15;;;;;;;0.00;0.00;;;;;;;5.47;73.02;99774.31;7359226;19;22006;-60
2022/12/23 00:51:24;;;;;;;0.10;0.10;;;;;;;5.60;73.25;99780.13;7355174;19;20029;-60
2022/12/23 00:53:50;;;;;;;0.00;0.00;;;;;;;5.59;73.57;99773.22;7358624;19;21705;-60
2022/12/23 00:56:15;;;;;;;0.10;0.10;;;;;;;5.59;73.74;99775.81;7354795;19;20025;-59
2022/12/23 00:58:40;;;;;;;0.10;0.10;;;;;;;5.60;73.60;99771.50;7356589;19;20014;-59
2022/12/23 01:06:34;;;;;;;0.10;0.10;;;;;;;5.62;73.74;99730.88;7357391;19;20022;-60
2022/12/23 01:09:00;;;;;;;0.10;0.10;;;;;;;5.63;73.63;99723.09;7356490;19;20003;-60
2022/12/23 01:11:25;;;;;;;0.10;0.10;;;;;;;5.65;73.96;99728.22;7358881;19;20026;-60
2022/12/23 01:13:51;;;;;;;0.10;0.10;;;;;;;5.67;73.74;99727.31;7356966;19;20011;-60
2022/12/23 01:16:16;;;;;;;0.00;0.00;;;;;;;5.68;73.62;99721.28;7355484;19;20798;-59
2022/12/23 01:18:41;;;;;;;0.15;0.15;;;;;;;5.70;73.72;99718.66;7355193;19;20014;-60
2022/12/23 01:21:09;;;;;;;0.10;0.10;;;;;;;5.68;73.45;99704.88;7356495;19;20022;-59
2022/12/23 01:23:35;;;;;;;0.00;0.00;;;;;;;5.71;73.49;99704.81;7357221;19;21112;-59
2022/12/23 01:26:03;;;;;;;0.10;0.10;;;;;;;5.73;73.45;99710.84;7356759;19;20011;-60
2022/12/23 01:28:30;;;;;;;0.10;0.10;;;;;;;5.72;73.50;99701.31;7355447;19;20379;-60
2022/12/23 01:30:58;;;;;;;0.10;0.10;;;;;;;5.72;73.25;99691.81;7356463;19;20040;-59
2022/12/23 01:33:23;;;;;;;0.10;0.10;;;;;;;5.60;73.25;99657.53;7358281;19;21217;-60
2022/12/23 01:35:48;;;;;;;0.08;0.08;;;;;;;5.71;73.41;99673.72;7357885;19;20029;-60
2022/12/23 01:38:14;;;;;;;0.10;0.10;;;;;;;5.68;73.49;99669.47;7355833;19;19994;-60
2022/12/23 01:40:42;;;;;;;0.10;0.10;;;;;;;5.71;73.57;99676.31;7355529;19;20006;-59
2022/12/23 01:43:44;;;;;;;0.10;0.10;;;;;;;5.71;73.20;99671.13;7357425;19;20574;-60
2022/12/23 01:46:09;;;;;;;0.05;0.05;;;;;;;5.66;73.41;99660.84;7253867;19;2004554;-60
2022/12/23 01:48:35;;;;;;;0.10;0.10;;;;;;;5.62;73.33;99648.00;7355023;19;20018;-60
2022/12/23 01:51:06;;;;;;;0.05;0.05;;;;;;;5.67;73.52;99646.16;7356125;19;20754;-60
2022/12/23 01:53:44;;;;;;;0.00;0.00;;;;;;;5.65;73.38;99653.13;7354146;19;20070;-60
2022/12/23 01:56:22;;;;;;;0.00;0.00;;;;;;;5.63;73.71;99652.31;7355570;19;20035;-60
2022/12/23 02:04:49;;;;;;;0.00;0.00;;;;;;;5.43;73.41;99632.81;7355478;19;20017;-60
2022/12/23 02:10:01;;;;;;;0.00;0.00;;;;;;;5.53;73.92;99648.19;7354803;19;20717;-60
2022/12/23 02:12:42;;;;;;;0.00;0.00;;;;;;;5.53;73.28;99648.19;7354704;19;20027;-59
2022/12/23 02:18:20;;;;;;;0.05;0.05;;;;;;;5.50;73.79;99653.41;7247930;19;2004427;-59
2022/12/23 02:21:04;;;;;;;0.10;0.10;;;;;;;5.50;73.72;99661.19;7355754;19;20022;-59
2022/12/23 02:23:35;;;;;;;0.00;0.00;;;;;;;5.50;73.88;99668.97;7353738;19;20017;-59
2022/12/23 02:26:18;;;;;;;0.05;0.05;;;;;;;5.47;73.58;99675.91;7353858;19;20021;-59
2022/12/23 02:29:11;;;;;;;0.00;0.00;;;;;;;5.49;73.49;99688.81;7355421;19;20038;-59
2022/12/23 02:32:07;;;;;;;0.10;0.10;;;;;;;5.47;73.76;99675.91;7252457;19;2004439;-60
2022/12/23 02:34:53;;;;;;;0.10;0.10;;;;;;;5.48;73.66;99669.00;7253715;19;2004498;-60
2022/12/23 02:37:24;;;;;;;0.03;0.03;;;;;;;5.49;73.81;99667.25;7350827;19;20561;-59
2022/12/23 02:40:04;;;;;;;0.08;0.08;;;;;;;5.47;73.75;99660.38;7355235;19;20611;-60
2022/12/23 02:42:41;;;;;;;0.00;0.00;;;;;;;5.37;73.48;99640.72;7354870;19;20018;-60
2022/12/23 02:45:21;;;;;;;0.00;0.00;;;;;;;5.51;74.14;99647.34;7354111;19;20017;-60
2022/12/23 02:47:51;;;;;;;0.10;0.10;;;;;;;5.42;73.77;99618.19;7354300;19;20025;-60
2022/12/23 02:50:23;;;;;;;0.10;0.10;;;;;;;5.54;73.83;99630.03;7352523;19;20521;-60
2022/12/23 02:52:51;;;;;;;0.10;0.10;;;;;;;5.50;73.70;99615.44;7351853;19;20663;-60
2022/12/23 02:55:24;;;;;;;0.10;0.10;;;;;;;5.60;73.64;99605.75;7356442;19;20085;-59
2022/12/23 02:57:53;;;;;;;0.00;0.00;;;;;;;5.61;73.86;99591.91;7354790;19;20873;-60
2022/12/23 03:00:20;;;;;;;0.00;0.00;;;;;;;5.62;73.77;99585.84;7364141;19;20110;-59
2022/12/23 03:02:46;;;;;;;0.10;0.10;;;;;;;5.62;73.85;99571.16;7367064;19;20019;-59
2022/12/23 03:05:25;;;;;;;0.00;0.00;;;;;;;5.67;73.63;99573.66;7363616;19;20010;-59
2022/12/23 03:07:53;;;;;;;0.10;0.10;;;;;;;5.66;73.71;99561.59;7363897;19;20011;-59
2022/12/23 03:10:37;;;;;;;0.00;0.00;;;;;;;5.69;73.82;99561.53;7364963;19;20025;-59
2022/12/23 03:13:36;;;;;;;0.00;0.00;;;;;;;5.71;73.17;99559.75;7360210;19;20383;-60
2022/12/23 03:16:20;;;;;;;0.10;0.10;;;;;;;5.69;73.64;99562.38;7260652;19;2004141;-59
2022/12/23 03:19:21;;;;;;;0.10;0.10;;;;;;;5.73;73.47;99563.19;7365315;19;20030;-59
2022/12/23 03:21:53;;;;;;;0.00;0.00;;;;;;;5.72;73.48;99545.91;7262528;19;2004470;-60
2022/12/23 03:24:39;;;;;;;0.10;0.10;;;;;;;5.74;73.23;99544.16;7363973;19;20010;-60
2022/12/23 03:27:21;;;;;;;0.03;0.03;;;;;;;5.72;73.60;99530.38;7364274;19;20775;-60
2022/12/23 03:29:58;;;;;;;0.10;0.10;;;;;;;5.72;73.60;99525.19;7364558;19;20010;-59
2022/12/23 03:32:27;;;;;;;0.10;0.10;;;;;;;5.71;73.31;99513.13;7365455;19;20010;-59
2022/12/23 03:34:57;;;;;;;0.00;0.00;;;;;;;5.74;73.64;99513.06;7364994;19;20025;-60
2022/12/23 03:37:26;;;;;;;0.08;0.08;;;;;;;5.75;73.69;99513.94;7362153;19;20021;-59
2022/12/23 03:39:57;;;;;;;0.03;0.03;;;;;;;5.76;73.85;99513.03;7364821;19;20024;-59
2022/12/23 03:42:29;;;;;;;0.10;0.10;;;;;;;5.75;73.58;99504.41;7366434;19;20011;-59
2022/12/23 03:44:57;;;;;;;0.00;0.00;;;;;;;5.78;73.86;99504.34;7353492;19;20474;-58
2022/12/23 03:47:44;;;;;;;0.00;0.00;;;;;;;5.80;73.56;99499.97;7366354;19;20355;-60
2022/12/23 03:50:13;;;;;;;0.00;0.00;;;;;;;5.82;73.84;99497.34;7260498;19;2004541;-59
2022/12/23 03:52:48;;;;;;;0.00;0.00;;;;;;;5.85;73.32;99485.19;7364594;19;20172;-60
2022/12/23 03:55:19;;;;;;;0.10;0.10;;;;;;;5.85;73.45;99480.00;7363006;19;20014;-59
2022/12/23 03:57:52;;;;;;;0.00;0.00;;;;;;;5.88;73.42;99484.25;7362027;19;20014;-60
2022/12/23 04:00:18;;;;;;;0.10;0.10;;;;;;;5.88;73.38;99474.78;7361975;19;20021;-59
2022/12/23 04:02:52;;;;;;;0.10;0.10;;;;;;;5.91;73.30;99464.34;7364277;19;20053;-60
2022/12/23 04:05:25;;;;;;;0.00;0.00;;;;;;;5.94;73.42;99453.06;7318908;19;20062;-59
2022/12/23 04:08:09;;;;;;;0.10;0.10;;;;;;;5.93;73.33;99456.53;7355422;19;20041;-59
2022/12/23 04:10:35;;;;;;;0.10;0.10;;;;;;;5.92;73.31;99450.50;7361594;19;20018;-60
2022/12/23 04:13:00;;;;;;;0.10;0.10;;;;;;;5.85;73.55;99423.00;7364650;19;20006;-59
2022/12/23 04:15:27;;;;;;;0.10;0.10;;;;;;;5.97;73.38;99433.09;7361776;19;20058;-60
2022/12/23 04:17:55;;;;;;;0.00;0.00;;;;;;;5.98;73.23;99427.06;7359761;19;20042;-59
2022/12/23 04:20:20;;;;;;;;;;;;;;;6.04;72.87;99432.97;7352409;19;20038;-60
2022/12/23 04:22:45;;;;;;;0.10;0.10;;;;;;;6.01;73.55;99425.25;7359283;19;19922;-60
2022/12/23 04:25:13;;;;;;;0.10;0.10;;;;;;;6.01;73.32;99413.16;7363976;19;20566;-59
2022/12/23 04:27:39;;;;;;;0.00;0.00;;;;;;;6.02;73.27;99408.81;7363519;19;20010;-60
2022/12/23 04:30:06;;;;;;;0.00;0.00;;;;;;;6.06;73.60;99405.28;7363347;19;20014;-59
2022/12/23 04:32:31;;;;;;;0.05;0.05;;;;;;;6.05;73.07;99404.41;7360545;19;20013;-59
2022/12/23 04:34:56;;;;;;;0.00;0.00;;;;;;;6.09;73.62;99400.03;7364340;19;20006;-59
2022/12/23 04:37:22;;;;;;;0.10;0.10;;;;;;;6.09;73.24;99387.06;7362499;19;20010;-59
2022/12/23 04:39:47;;;;;;;0.00;0.00;;;;;;;6.12;73.72;99386.97;7365965;19;20014;-60
2022/12/23 04:42:13;;;;;;;0.00;0.00;;;;;;;6.13;73.39;99375.69;7364002;19;20017;-59
2022/12/23 04:44:38;;;;;;;0.00;0.00;;;;;;;6.14;73.37;99362.72;7365255;19;20046;-59
2022/12/23 04:47:03;;;;;;;0.10;0.10;;;;;;;6.17;73.23;99354.84;7363711;19;20031;-59
2022/12/23 04:49:30;;;;;;;0.10;0.10;;;;;;;6.20;73.31;99346.16;7362685;19;20017;-60
2022/12/23 04:51:55;;;;;;;0.00;0.00;;;;;;;6.01;73.27;99303.47;7363838;19;20108;-59
2022/12/23 04:54:20;;;;;;;0.10;0.10;;;;;;;6.24;73.21;99337.41;7362169;19;20026;-59
2022/12/23 04:56:46;;;;;;;0.10;0.10;;;;;;;6.27;73.17;99342.50;7364155;19;20010;-60
2022/12/23 04:59:11;;;;;;;0.10;0.10;;;;;;;6.28;73.35;99323.44;7364374;19;20013;-59
2022/12/23 05:01:37;;;;;;;0.08;0.08;;;;;;;6.31;73.33;99306.97;7362456;19;20011;-60
2022/12/23 05:04:02;;;;;;;0.00;0.00;;;;;;;6.33;73.23;99303.44;7363613;19;20021;-60
2022/12/23 05:06:28;;;;;;;0.00;0.00;;;;;;;6.35;73.34;99293.91;7362042;19;20098;-59
2022/12/23 05:08:53;;;;;;;0.10;0.10;;;;;;;6.34;73.48;99281.84;7363032;19;20036;-59
2022/12/23 05:11:18;;;;;;;0.10;0.10;;;;;;;6.41;73.10;99279.91;7362133;19;20013;-59
2022/12/23 05:13:44;;;;;;;0.03;0.03;;;;;;;6.44;73.16;99288.47;7364150;19;20360;-59
2022/12/23 05:16:09;;;;;;;0.10;0.10;;;;;;;6.47;73.19;99272.78;7361413;19;20019;-58
2022/12/23 05:18:35;;;;;;;0.00;0.00;;;;;;;6.50;73.22;99267.53;7360258;19;20018;-60
2022/12/23 05:21:00;;;;;;;0.00;0.00;;;;;;;6.52;73.14;99249.31;7363514;19;20042;-59
2022/12/23 05:23:26;;;;;;;0.00;0.00;;;;;;;6.61;73.42;99264.63;7361943;19;20010;-60
2022/12/23 05:25:52;;;;;;;0.00;0.00;;;;;;;6.66;73.32;99261.88;7360822;19;20470;-59
2022/12/23 05:28:19;;;;;;;0.00;0.00;;;;;;;6.71;73.49;99247.88;7360701;19;20657;-59
2022/12/23 05:30:44;;;;;;;0.00;0.00;;;;;;;6.69;73.53;99235.84;7359318;19;20010;-59
2022/12/23 05:33:09;;;;;;;0.10;0.10;;;;;;;6.84;73.12;99235.38;7363705;19;20028;-59
2022/12/23 05:35:35;;;;;;;0.00;0.00;;;;;;;6.85;73.13;99218.94;7359802;19;20018;-60
2022/12/23 05:38:02;;;;;;;0.00;0.00;;;;;;;7.02;73.53;99245.19;7363350;19;20014;-60
2022/12/23 05:40:28;;;;;;;0.00;0.00;;;;;;;7.11;73.24;99243.22;7361433;19;20028;-60
2022/12/23 05:42:53;;;;;;;0.10;0.10;;;;;;;7.16;73.68;99231.78;7363538;19;20096;-60
2022/12/23 05:45:19;;;;;;;0.00;0.00;;;;;;;7.27;73.70;99226.22;7356840;19;20712;-59
2022/12/23 05:47:45;;;;;;;0.00;0.00;;;;;;;7.35;73.29;99224.25;7362921;19;20483;-60
2022/12/23 05:50:11;;;;;;;0.00;0.00;;;;;;;7.42;73.34;99212.75;7362496;19;20002;-60
2022/12/23 05:52:36;;;;;;;0.00;0.00;;;;;;;7.50;73.41;99210.75;7361164;19;20018;-59
2022/12/23 05:55:03;;;;;;;0.00;0.00;;;;;;;7.59;73.28;99204.38;7362371;19;20604;-59
2022/12/23 05:57:29;;;;;;;0.00;0.00;;;;;;;7.68;73.36;99205.81;7360315;19;20010;-59
2022/12/23 05:59:54;;;;;;;0.10;0.10;;;;;;;7.75;73.77;99194.28;7362234;19;20022;-59
2022/12/23 06:02:20;;;;;;;0.10;0.10;;;;;;;7.81;73.55;99194.09;7359128;19;20006;-59
2022/12/23 06:04:46;;;;;;;0.10;0.10;;;;;;;7.88;73.36;99190.34;7360911;19;20010;-59
2022/12/23 06:07:12;;;;;;;0.10;0.10;;;;;;;7.94;73.39;99174.53;7359404;19;20354;-59
2022/12/23 06:09:37;;;;;;;0.08;0.08;;;;;;;7.98;73.50;99170.94;7362214;19;20014;-59
2022/12/23 06:12:03;;;;;;;0.10;0.10;;;;;;;8.06;73.62;99176.69;7361998;19;20017;-60
2022/12/23 06:14:28;;;;;;;0.00;0.00;;;;;;;8.12;73.50;99167.81;7362067;19;20492;-59
2022/12/23 06:16:53;;;;;;;0.00;0.00;;;;;;;8.16;73.45;99158.13;7360403;19;20128;-58
2022/12/23 06:19:19;;;;;;;0.00;0.00;;;;;;;8.24;73.06;99161.31;7360833;19;20010;-60
2022/12/23 06:21:44;;;;;;;0.00;0.00;;;;;;;8.28;73.38;99142.09;7362274;19;20033;-60
2022/12/23 06:24:10;;;;;;;0.00;0.00;;;;;;;8.30;73.27;99135.06;7359060;19;20039;-59
2022/12/23 06:26:35;;;;;;;0.00;0.00;;;;;;;8.31;73.00;99114.22;7360687;19;20502;-60
2022/12/23 06:29:02;;;;;;;0.00;0.00;;;;;;;8.43;72.94;99125.91;7360359;19;20101;-59
2022/12/23 06:31:27;;;;;;;0.10;0.10;;;;;;;8.45;73.39;99116.28;7366051;19;20014;-60
2022/12/23 06:33:53;;;;;;;0.00;0.00;;;;;;;8.49;73.36;99099.66;7365304;19;20043;-59
2022/12/23 06:36:19;;;;;;;0.00;0.00;;;;;;;8.54;73.15;99108.13;7367606;19;20370;-59
2022/12/23 06:38:44;;;;;;;0.00;0.00;;;;;;;8.49;72.74;99091.84;7366363;19;20018;-60
2022/12/23 06:41:10;;;;;;;0.00;0.00;;;;;;;8.61;72.98;99100.06;7365755;19;20505;-59
2022/12/23 06:43:35;;;;;;;0.00;0.00;;;;;;;8.63;73.19;99095.66;7368185;19;20010;-59
2022/12/23 06:46:01;;;;;;;0.00;0.00;;;;;;;8.65;73.14;99080.81;7362954;19;20022;-60
2022/12/23 06:48:26;;;;;;;0.00;0.00;;;;;;;8.65;72.77;99067.81;7367969;19;20014;-60
2022/12/23 06:50:51;;;;;;;0.10;0.10;;;;;;;8.72;72.91;99071.88;7365718;19;20013;-59
2022/12/23 06:53:17;;;;;;;0.10;0.10;;;;;;;8.70;72.96;99060.66;7367703;19;20021;-60
2022/12/23 06:55:42;;;;;;;0.00;0.00;;;;;;;8.76;73.04;99070.81;7367274;19;20728;-59
2022/12/23 06:58:08;;;;;;;0.08;0.08;;;;;;;8.79;72.81;99060.28;7359106;19;20871;-59
2022/12/23 07:00:33;;;;;;;0.00;0.00;;;;;;;8.80;72.99;99054.16;7363477;19;20011;-60
2022/12/23 07:02:59;;;;;;;0.10;0.10;;;;;;;8.82;72.92;99044.56;7365113;19;20003;-60
2022/12/23 07:05:24;;;;;;;0.00;0.00;;;;;;;8.87;73.20;99032.19;7364297;19;20099;-59
2022/12/23 07:07:50;;;;;;;0.10;0.10;;;;;;;8.90;73.28;99036.41;7364654;19;20010;-60
2022/12/23 07:10:15;;;;;;;0.00;0.00;;;;;;;8.92;73.03;99034.56;7366128;19;20011;-60
2022/12/23 07:12:40;;;;;;;0.00;0.00;;;;;;;8.95;72.80;99045.72;7363272;19;20011;-59
2022/12/23 07:15:07;;;;;;;0.00;0.00;;;;;;;8.98;72.57;99045.59;7357460;19;20003;-60
2022/12/23 07:17:32;;;;;;;0.00;0.00;;;;;;;8.97;73.17;99049.13;7363475;19;20432;-60
2022/12/23 07:19:58;;;;;;;0.10;0.10;;;;;;;9.03;72.55;99056.66;7362343;19;20006;-60
2022/12/23 07:22:23;;;;;;;0.10;0.10;;;;;;;8.94;73.06;99033.63;7363166;19;20015;-59
2022/12/23 07:24:49;;;;;;;0.00;0.00;;;;;;;9.08;72.54;99053.88;7362658;19;20094;-59
2022/12/23 07:27:15;;;;;;;0.00;0.00;;;;;;;9.11;72.89;99061.53;7364079;19;20007;-59
2022/12/23 07:29:40;;;;;;;0.00;0.00;;;;;;;9.14;72.84;99063.16;7363601;19;20011;-60
2022/12/23 07:32:05;;;;;;;0.00;0.00;;;;;;;9.17;72.48;99068.22;7362080;19;20014;-59
2022/12/23 07:34:31;;;;;;;0.00;0.00;;;;;;;9.19;72.44;99080.28;7364591;19;20822;-59
2022/12/23 07:36:56;;;;;;;0.10;0.10;;;;;;;9.09;72.61;99052.94;7362153;19;20018;-59
2022/12/23 07:39:22;;;;;;;0.10;0.10;;;;;;;9.23;72.61;99075.81;7363771;19;20018;-59
2022/12/23 07:41:47;;;;;;;0.00;0.00;;;;;;;9.24;72.60;99072.28;7361197;19;20045;-59
2022/12/23 07:44:13;;;;;;;0.00;0.00;;;;;;;9.23;72.37;99066.22;7365710;19;20002;-57
2022/12/23 07:46:38;;;;;;;0.00;0.00;;;;;;;9.18;72.98;99065.56;7363051;19;21912;-59
2022/12/23 07:49:04;;;;;;;0.00;0.00;;;;;;;9.16;72.72;99054.34;7364666;19;20010;-58
2022/12/23 07:51:30;;;;;;;0.00;0.00;;;;;;;9.13;72.34;99053.66;7358576;19;20025;-59
2022/12/23 07:53:55;;;;;;;0.00;0.00;;;;;;;9.07;73.21;99053.03;7360145;19;20018;-59
2022/12/23 07:56:21;;;;;;;0.10;0.10;;;;;;;8.98;72.79;99034.34;7362305;19;22369;-59
2022/12/23 07:58:51;;;;;;;0.00;0.00;;;;;;;9.02;73.07;99035.88;7364189;19;20011;-59
2022/12/23 08:01:17;;;;;;;0.00;0.00;;;;;;;8.99;73.29;99030.81;7362391;19;20021;-59
2022/12/23 08:03:43;;;;;;;0.10;0.10;;;;;;;8.94;73.26;99033.63;7363588;19;20011;-59
2022/12/23 08:06:14;;;;;;;0.10;0.10;;;;;;;8.92;73.37;99017.22;7360696;19;20018;-59
2022/12/23 08:08:42;;;;;;;0.00;0.00;;;;;;;8.89;73.92;99019.94;7364669;19;20015;-59
2022/12/23 08:11:09;;;;;;;0.00;0.00;;;;;;;8.88;73.25;99007.00;7361176;19;20010;-59
2022/12/23 08:13:37;;;;;;;0.10;0.10;;;;;;;8.86;73.43;98999.25;7363127;19;20060;-59
2022/12/23 08:16:03;;;;;;;0.10;0.10;;;;;;;8.82;73.29;98982.09;7359084;19;20014;-59
2022/12/23 08:18:30;;;;;;;0.00;0.00;;;;;;;8.81;73.82;98982.97;7359539;19;20045;-60
2022/12/23 08:20:59;;;;;;;0.00;0.00;;;;;;;8.81;73.62;98982.97;7360469;19;20015;-60
2022/12/23 08:23:25;;;;;;;0.10;0.10;;;;;;;8.78;73.54;98991.78;7360496;19;20013;-60
2022/12/23 08:26:05;;;;;;;0.00;0.00;;;;;;;8.79;73.50;98979.63;7361513;19;20026;-59
2022/12/23 08:28:31;;;;;;;0.10;0.10;;;;;;;8.76;73.81;98987.53;7361732;19;20348;-59
2022/12/23 08:31:08;;;;;;;0.00;0.00;;;;;;;8.78;73.65;98993.53;7364991;19;20022;-59
2022/12/23 08:33:35;;;;;;;0.00;0.00;;;;;;;8.73;74.18;98988.53;7363368;19;20003;-59
2022/12/23 08:36:01;;;;;;;0.10;0.10;;;;;;;8.68;73.93;98984.44;7360901;19;20022;-58
2022/12/23 08:38:27;;;;;;;0.10;0.10;;;;;;;8.73;74.09;98995.50;7363526;19;20014;-59
2022/12/23 08:40:52;;;;;;;0.00;0.00;;;;;;;8.68;74.52;98984.44;7364061;19;20541;-59
2022/12/23 08:43:18;;;;;;;0.00;0.00;;;;;;;8.73;74.53;98990.28;7358858;19;20002;-59
2022/12/23 08:45:43;;;;;;;0.00;0.00;;;;;;;8.71;74.29;98984.28;7362129;19;20006;-59
2022/12/23 08:48:09;;;;;;;0.00;0.00;;;;;;;8.73;74.49;98987.69;7362597;19;20773;-59
2022/12/23 08:50:41;;;;;;;0.00;0.00;;;;;;;8.75;74.57;98983.25;7360783;19;20023;-56
2022/12/23 08:53:08;;;;;;;0.10;0.10;;;;;;;8.73;74.72;98972.06;7360375;19;20006;-59
2022/12/23 08:55:41;;;;;;;0.05;0.05;;;;;;;8.69;74.79;98954.91;7363131;19;20013;-59
2022/12/23 08:58:08;;;;;;;0.00;0.00;;;;;;;8.74;74.72;98950.34;7353876;19;20693;-59
2022/12/23 09:00:34;;;;;;;0.10;0.10;;;;;;;8.63;74.77;98929.16;7348257;19;20025;-59
2022/12/23 09:02:59;;;;;;;0.10;0.10;;;;;;;8.74;74.73;98943.38;7360167;19;20010;-59
2022/12/23 09:05:25;;;;;;;0.00;0.00;;;;;;;8.73;74.75;98933.88;7361336;19;20492;-59
2022/12/23 09:07:51;;;;;;;0.00;0.00;;;;;;;8.74;74.98;98926.91;7360816;19;20646;-60
2022/12/23 09:10:16;;;;;;;0.00;0.00;;;;;;;8.72;74.92;98923.53;7361212;19;20014;-59
2022/12/23 09:12:42;;;;;;;0.10;0.10;;;;;;;8.75;75.21;98923.41;7358036;19;20011;-59
2022/12/23 09:15:08;;;;;;;0.05;0.05;;;;;;;8.73;75.03;98914.81;7359966;19;20010;-60
2022/12/23 09:17:33;;;;;;;0.08;0.08;;;;;;;8.75;75.11;98923.41;7356717;19;20130;-59
2022/12/23 09:19:58;;;;;;;0.10;0.10;;;;;;;8.76;75.11;98919.88;7360496;19;20086;-59
2022/12/23 09:22:24;;;;;;;0.10;0.10;;;;;;;8.76;74.94;98910.31;7359414;19;20010;-59
2022/12/23 09:24:49;;;;;;;0.10;0.10;;;;;;;8.77;74.81;98901.59;7359321;19;20014;-59
2022/12/23 09:27:15;;;;;;;0.00;0.00;;;;;;;8.78;74.97;98897.25;7361135;19;20010;-59
2022/12/23 09:29:40;;;;;;;0.10;0.10;;;;;;;8.78;74.78;98898.09;7358540;19;20777;-60
2022/12/23 09:32:05;;;;;;;0.00;0.00;;;;;;;8.79;75.06;98891.13;7359829;19;20021;-59
2022/12/23 09:34:31;;;;;;;0.00;0.00;;;;;;;8.71;75.23;98875.00;7359741;19;20014;-60
2022/12/23 09:36:56;;;;;;;0.10;0.10;;;;;;;8.80;75.00;98890.19;7360314;19;20010;-58
2022/12/23 09:39:23;;;;;;;0.00;0.00;;;;;;;8.81;74.82;98887.53;7358614;19;20011;-59
2022/12/23 09:42:16;;;;;;;0.00;0.00;;;;;;;8.83;74.47;98888.31;7360009;19;20018;-60
2022/12/23 09:45:13;;;;;;;0.00;0.00;;;;;;;8.86;74.06;98896.91;7358149;19;20010;-59
2022/12/23 09:47:40;;;;;;;0.00;0.00;;;;;;;8.81;75.00;98891.88;7258503;19;2004496;-58
2022/12/23 09:50:17;;;;;;;0.03;0.03;;;;;;;8.85;75.00;98898.66;7358600;19;20006;-60
2022/12/23 09:52:59;;;;;;;0.00;0.00;;;;;;;8.87;74.72;98888.16;7360183;19;20055;-59
2022/12/23 09:55:46;;;;;;;0.00;0.00;;;;;;;8.87;74.79;98888.16;7360129;19;20359;-59
2022/12/23 09:58:42;;;;;;;0.00;0.00;;;;;;;8.88;74.63;98882.91;7357338;19;20013;-60
2022/12/23 10:01:21;;;;;;;0.00;0.00;;;;;;;8.87;74.86;98894.25;7255935;19;2004554;-59
2022/12/23 10:04:25;;;;;;;0.00;0.00;;;;;;;8.89;74.51;98887.19;7356265;19;20010;-60
2022/12/23 10:07:36;;;;;;;0.00;0.00;;;;;;;8.90;74.67;98875.03;7263494;19;2004117;-59
2022/12/23 10:10:13;;;;;;;0.00;0.00;;;;;;;8.80;74.68;98865.03;7261545;19;2004418;-59
2022/12/23 10:12:48;;;;;;;0.08;0.08;;;;;;;8.86;74.64;98873.47;7365203;19;20011;-59
2022/12/23 10:15:30;;;;;;;0.10;0.10;;;;;;;8.90;74.71;98883.66;7364905;19;20010;-59
2022/12/23 10:18:01;;;;;;;0.00;0.00;;;;;;;8.91;75.20;98903.56;7366617;19;20018;-60
2022/12/23 10:20:58;;;;;;;0.00;0.00;;;;;;;8.91;74.25;98893.16;7365288;19;20010;-59
2022/12/23 10:23:33;;;;;;;;;;;;;;;8.97;73.81;98885.09;7264138;19;2004114;-59
2022/12/23 10:26:02;;;;;;;0.00;0.00;;;;;;;8.94;74.30;98871.38;7366045;19;19919;-60
2022/12/23 10:28:27;;;;;;;0.00;0.00;;;;;;;8.95;74.79;98875.66;7362391;19;20010;-59
2022/12/23 10:31:10;;;;;;;0.10;0.10;;;;;;;8.98;74.42;98872.94;7365431;19;20010;-59
2022/12/23 10:33:48;;;;;;;0.10;0.10;;;;;;;8.98;74.98;98857.31;7365776;19;20010;-59
2022/12/23 10:36:42;;;;;;;0.00;0.00;;;;;;;9.00;74.94;98861.53;7366941;19;20007;-59
2022/12/23 10:39:26;;;;;;;0.10;0.10;;;;;;;8.99;74.89;98854.63;7262977;19;2004463;-59
2022/12/23 10:42:09;;;;;;;0.10;0.10;;;;;;;9.04;74.80;98852.66;7368783;19;20864;-60
2022/12/23 10:44:57;;;;;;;0.00;0.00;;;;;;;9.06;74.75;98856.03;7366436;19;20019;-59
2022/12/23 10:47:40;;;;;;;0.00;0.00;;;;;;;9.14;74.65;98852.25;7367362;19;20017;-58
2022/12/23 10:50:27;;;;;;;0.00;0.00;;;;;;;9.16;75.45;98848.63;7359695;19;20018;-60
2022/12/23 10:52:55;;;;;;;0.00;0.00;;;;;;;9.19;75.49;98845.91;7365213;19;20036;-59
2022/12/23 10:55:28;;;;;;;0.00;0.00;;;;;;;9.18;75.09;98830.34;7360417;19;20168;-60
2022/12/23 10:57:58;;;;;;;0.00;0.00;;;;;;;9.26;75.21;98839.47;7366315;19;20066;-59
2022/12/23 11:00:24;;;;;;;0.00;0.00;;;;;;;9.24;75.04;98830.91;7362001;19;20127;-60
2022/12/23 11:03:15;;;;;;;0.00;0.00;;;;;;;9.34;74.91;98834.75;7366299;19;20030;-60
2022/12/23 11:05:41;;;;;;;0.00;0.00;;;;;;;9.36;75.38;98821.66;7264860;19;2004598;-60
2022/12/23 11:08:08;;;;;;;0.00;0.00;;;;;;;9.39;75.22;98824.13;7367411;19;20884;-60
2022/12/23 11:10:34;;;;;;;0.05;0.05;;;;;;;9.42;74.87;98821.34;7364910;19;20009;-60
2022/12/23 11:13:00;;;;;;;0.05;0.05;;;;;;;9.46;74.72;98819.44;7367170;19;20500;-60
2022/12/23 11:15:39;;;;;;;0.00;0.00;;;;;;;9.51;74.91;98818.31;7365696;19;20025;-59
2022/12/23 11:18:11;;;;;;;0.00;0.00;;;;;;;9.54;74.89;98820.78;7359876;19;20006;-59
2022/12/23 11:20:38;;;;;;;0.00;0.00;;;;;;;9.57;74.97;98819.78;7367510;19;20007;-60
2022/12/23 11:23:05;;;;;;;;;;;;;;;9.64;74.03;98820.34;7365289;19;20022;-60
2022/12/23 11:25:33;;;;;;;0.10;0.10;;;;;;;9.64;74.81;98820.34;7360957;19;19939;-60
2022/12/23 11:28:01;;;;;;;;;;;;;;;9.71;73.80;98819.94;7365187;19;20034;-59
2022/12/23 11:30:28;;;;;;;0.00;0.00;;;;;;;9.69;74.65;98810.53;7365581;19;19994;-60
2022/12/23 11:32:55;;;;;;;0.00;0.00;;;;;;;9.72;74.66;98803.38;7362416;19;20031;-59
2022/12/23 11:35:29;;;;;;;0.10;0.10;;;;;;;9.76;74.64;98809.28;7365894;19;20018;-60
2022/12/23 11:37:55;;;;;;;0.00;0.00;;;;;;;9.77;75.12;98817.03;7360423;19;20011;-60
2022/12/23 11:40:37;;;;;;;0.03;0.03;;;;;;;9.84;74.88;98812.38;7362947;19;20083;-60
2022/12/23 11:43:11;;;;;;;0.00;0.00;;;;;;;9.84;75.03;98808.00;7362171;19;20031;-60
2022/12/23 11:45:37;;;;;;;0.00;0.00;;;;;;;9.87;75.09;98807.00;7363829;19;20101;-60
2022/12/23 11:48:04;;;;;;;0.00;0.00;;;;;;;9.89;75.21;98799.94;7362341;19;21506;-60
2022/12/23 11:50:38;;;;;;;0.00;0.00;;;;;;;9.91;74.81;98792.88;7363589;19;20011;-60
2022/12/23 11:53:24;;;;;;;0.00;0.00;;;;;;;9.97;74.88;98787.34;7362780;19;20006;-60
2022/12/23 11:56:03;;;;;;;0.00;0.00;;;;;;;9.97;74.63;98787.34;7362545;19;20014;-60
2022/12/23 11:58:34;;;;;;;0.10;0.10;;;;;;;9.98;75.09;98794.25;7366797;19;20624;-60
2022/12/23 12:01:07;;;;;;;0.00;0.00;;;;;;;9.91;74.62;98777.25;7361300;19;20018;-60
2022/12/23 12:03:39;;;;;;;0.00;0.00;;;;;;;9.91;75.38;98774.63;7363627;19;20014;-60
2022/12/23 12:06:05;;;;;;;0.00;0.00;;;;;;;9.96;75.04;98796.09;7361852;19;20883;-60
2022/12/23 12:08:34;;;;;;;0.00;0.00;;;;;;;10.03;74.63;98823.53;7363926;19;20025;-58
2022/12/23 12:11:15;;;;;;;0.00;0.00;;;;;;;10.06;74.01;98828.63;7362940;19;20030;-59
2022/12/23 12:13:43;;;;;;;0.10;0.10;;;;;;;10.04;74.98;98798.34;7360607;19;20465;-59
2022/12/23 12:16:17;;;;;;;0.00;0.00;;;;;;;10.04;74.21;98799.19;7361077;19;20106;-59
2022/12/23 12:18:45;;;;;;;0.00;0.00;;;;;;;10.03;74.40;98802.69;7362877;19;20371;-59
2022/12/23 12:21:17;;;;;;;0.03;0.03;;;;;;;10.03;74.54;98823.53;7360050;19;20046;-59
2022/12/23 12:23:49;;;;;;;0.10;0.10;;;;;;;9.99;74.80;98827.25;7357067;19;20006;-59